Teton, Idaho
Current Conditions -  °F | °C
As of 8:53 PM on Saturday 25 Oct 2014 (Local Time) from KRXE Reporting Station
Clear Clear  
Wind Chill: 61°   Ceiling: Unl
Heat Index: 61°   Visibility: 10mi
Dew Point: 33°   Wind: 9mph
Humidity: 35%   Direction: 180°S
Pressure: 29.82"   Gusts: NA
Location:  43.89°N, 111.68°W
Report Text: KRXE 260253Z AUTO 18008KT 10SM CLR 16/01 A2982 RMK AO2 SLP083 T01610006 58017
Loading
Personal Weather Stations






























Interactive Weather Map New forecast layout! Learn more

10-Day Weather Forecast

Advertisements
Track Severe Weather on mobile